sensor_id;sensor_type;location;lat;lon;timestamp;P1;durP1;ratioP1;P2;durP2;ratioP2
51854;SDS011;37895;53.240;6.572;2023-04-15T00:00:14;10.90;;;7.60;;
51854;SDS011;37895;53.240;6.572;2023-04-15T00:02:41;12.45;;;6.90;;
51854;SDS011;37895;53.240;6.572;2023-04-15T00:05:08;11.90;;;7.20;;
51854;SDS011;37895;53.240;6.572;2023-04-15T00:07:34;11.85;;;7.82;;
51854;SDS011;37895;53.240;6.572;2023-04-15T00:10:00;12.15;;;7.35;;
51854;SDS011;37895;53.240;6.572;2023-04-15T00:12:26;11.25;;;7.93;;
51854;SDS011;37895;53.240;6.572;2023-04-15T00:14:52;10.77;;;8.10;;
51854;SDS011;37895;53.240;6.572;2023-04-15T00:17:18;13.52;;;7.63;;
51854;SDS011;37895;53.240;6.572;2023-04-15T00:19:44;11.25;;;7.63;;
51854;SDS011;37895;53.240;6.572;2023-04-15T00:22:10;11.27;;;7.63;;
51854;SDS011;37895;53.240;6.572;2023-04-15T00:24:36;12.35;;;8.18;;
51854;SDS011;37895;53.240;6.572;2023-04-15T00:27:02;13.32;;;9.05;;
51854;SDS011;37895;53.240;6.572;2023-04-15T00:29:28;14.77;;;8.68;;
51854;SDS011;37895;53.240;6.572;2023-04-15T00:31:54;13.15;;;9.15;;
51854;SDS011;37895;53.240;6.572;2023-04-15T00:34:21;13.75;;;8.65;;
51854;SDS011;37895;53.240;6.572;2023-04-15T00:36:47;13.50;;;9.50;;
51854;SDS011;37895;53.240;6.572;2023-04-15T00:39:13;13.77;;;9.00;;
51854;SDS011;37895;53.240;6.572;2023-04-15T00:41:40;12.77;;;8.68;;
51854;SDS011;37895;53.240;6.572;2023-04-15T00:44:06;14.25;;;9.02;;
51854;SDS011;37895;53.240;6.572;2023-04-15T00:46:36;15.23;;;9.15;;
51854;SDS011;37895;53.240;6.572;2023-04-15T00:49:04;12.93;;;9.43;;
51854;SDS011;37895;53.240;6.572;2023-04-15T00:51:30;10.27;;;9.05;;
51854;SDS011;37895;53.240;6.572;2023-04-15T00:53:57;13.80;;;9.57;;
51854;SDS011;37895;53.240;6.572;2023-04-15T00:56:24;11.68;;;9.15;;
51854;SDS011;37895;53.240;6.572;2023-04-15T00:58:51;12.82;;;8.93;;
51854;SDS011;37895;53.240;6.572;2023-04-15T01:01:20;14.98;;;9.52;;
51854;SDS011;37895;53.240;6.572;2023-04-15T01:03:48;13.05;;;9.85;;
51854;SDS011;37895;53.240;6.572;2023-04-15T01:06:14;13.23;;;9.68;;
51854;SDS011;37895;53.240;6.572;2023-04-15T01:08:40;14.93;;;10.27;;
51854;SDS011;37895;53.240;6.572;2023-04-15T01:11:06;15.40;;;9.95;;
51854;SDS011;37895;53.240;6.572;2023-04-15T01:13:33;13.63;;;9.80;;
51854;SDS011;37895;53.240;6.572;2023-04-15T01:16:00;13.55;;;10.43;;
51854;SDS011;37895;53.240;6.572;2023-04-15T01:20:53;16.33;;;11.07;;
51854;SDS011;37895;53.240;6.572;2023-04-15T01:23:20;11.63;;;9.93;;
51854;SDS011;37895;53.240;6.572;2023-04-15T01:25:49;16.40;;;11.50;;
51854;SDS011;37895;53.240;6.572;2023-04-15T01:28:15;13.43;;;10.40;;
51854;SDS011;37895;53.240;6.572;2023-04-15T01:30:41;13.63;;;10.88;;
51854;SDS011;37895;53.240;6.572;2023-04-15T01:33:07;18.20;;;12.60;;
51854;SDS011;37895;53.240;6.572;2023-04-15T01:35:33;17.95;;;12.52;;
51854;SDS011;37895;53.240;6.572;2023-04-15T01:38:03;14.85;;;11.10;;
51854;SDS011;37895;53.240;6.572;2023-04-15T01:40:30;15.70;;;11.60;;
51854;SDS011;37895;53.240;6.572;2023-04-15T01:42:57;15.93;;;11.98;;
51854;SDS011;37895;53.240;6.572;2023-04-15T01:45:22;14.63;;;11.85;;
51854;SDS011;37895;53.240;6.572;2023-04-15T01:47:48;14.07;;;10.73;;
51854;SDS011;37895;53.240;6.572;2023-04-15T01:50:14;17.77;;;11.55;;
51854;SDS011;37895;53.240;6.572;2023-04-15T01:52:40;14.30;;;11.65;;
51854;SDS011;37895;53.240;6.572;2023-04-15T01:55:06;18.73;;;12.13;;
51854;SDS011;37895;53.240;6.572;2023-04-15T01:57:33;15.13;;;11.55;;
51854;SDS011;37895;53.240;6.572;2023-04-15T01:59:58;14.18;;;11.63;;
51854;SDS011;37895;53.240;6.572;2023-04-15T02:02:24;15.73;;;12.88;;
51854;SDS011;37895;53.240;6.572;2023-04-15T02:04:50;16.57;;;11.97;;
51854;SDS011;37895;53.240;6.572;2023-04-15T02:07:16;14.47;;;12.40;;
51854;SDS011;37895;53.240;6.572;2023-04-15T02:09:42;15.40;;;13.10;;
51854;SDS011;37895;53.240;6.572;2023-04-15T02:12:08;18.00;;;14.77;;
51854;SDS011;37895;53.240;6.572;2023-04-15T02:14:33;17.70;;;13.25;;
51854;SDS011;37895;53.240;6.572;2023-04-15T02:16:59;16.02;;;13.90;;
51854;SDS011;37895;53.240;6.572;2023-04-15T02:19:31;15.48;;;13.88;;
51854;SDS011;37895;53.240;6.572;2023-04-15T02:21:58;16.33;;;14.48;;
51854;SDS011;37895;53.240;6.572;2023-04-15T02:24:24;17.42;;;14.07;;
51854;SDS011;37895;53.240;6.572;2023-04-15T02:26:50;16.50;;;14.75;;
51854;SDS011;37895;53.240;6.572;2023-04-15T02:29:15;16.05;;;14.13;;
51854;SDS011;37895;53.240;6.572;2023-04-15T02:31:41;18.40;;;15.30;;
51854;SDS011;37895;53.240;6.572;2023-04-15T02:36:33;17.80;;;14.88;;
51854;SDS011;37895;53.240;6.572;2023-04-15T02:38:59;17.37;;;14.53;;
51854;SDS011;37895;53.240;6.572;2023-04-15T02:41:24;19.77;;;15.45;;
51854;SDS011;37895;53.240;6.572;2023-04-15T02:43:52;18.23;;;15.52;;
51854;SDS011;37895;53.240;6.572;2023-04-15T02:46:18;16.92;;;15.07;;
51854;SDS011;37895;53.240;6.572;2023-04-15T02:48:43;16.73;;;14.88;;
51854;SDS011;37895;53.240;6.572;2023-04-15T02:51:13;18.20;;;15.93;;
51854;SDS011;37895;53.240;6.572;2023-04-15T02:53:40;18.63;;;16.13;;
51854;SDS011;37895;53.240;6.572;2023-04-15T02:56:07;19.60;;;15.98;;
51854;SDS011;37895;53.240;6.572;2023-04-15T02:58:33;18.17;;;15.18;;
51854;SDS011;37895;53.240;6.572;2023-04-15T03:00:59;18.83;;;16.90;;
51854;SDS011;37895;53.240;6.572;2023-04-15T03:03:25;20.10;;;16.40;;
51854;SDS011;37895;53.240;6.572;2023-04-15T03:05:52;20.13;;;16.60;;
51854;SDS011;37895;53.240;6.572;2023-04-15T03:08:18;21.02;;;18.70;;
51854;SDS011;37895;53.240;6.572;2023-04-15T03:10:45;21.58;;;16.35;;
51854;SDS011;37895;53.240;6.572;2023-04-15T03:13:11;21.63;;;18.42;;
51854;SDS011;37895;53.240;6.572;2023-04-15T03:15:37;21.77;;;17.92;;
51854;SDS011;37895;53.240;6.572;2023-04-15T03:18:02;22.53;;;18.53;;
51854;SDS011;37895;53.240;6.572;2023-04-15T03:20:28;21.35;;;18.23;;
51854;SDS011;37895;53.240;6.572;2023-04-15T03:22:54;22.38;;;19.75;;
51854;SDS011;37895;53.240;6.572;2023-04-15T03:25:19;20.05;;;17.35;;
51854;SDS011;37895;53.240;6.572;2023-04-15T03:27:45;21.25;;;18.98;;
51854;SDS011;37895;53.240;6.572;2023-04-15T03:30:11;22.92;;;20.08;;
51854;SDS011;37895;53.240;6.572;2023-04-15T03:32:37;21.65;;;19.33;;
51854;SDS011;37895;53.240;6.572;2023-04-15T03:37:29;22.63;;;20.13;;
51854;SDS011;37895;53.240;6.572;2023-04-15T03:39:55;22.35;;;18.98;;
51854;SDS011;37895;53.240;6.572;2023-04-15T03:42:20;21.20;;;18.92;;
51854;SDS011;37895;53.240;6.572;2023-04-15T03:44:46;22.23;;;19.48;;
51854;SDS011;37895;53.240;6.572;2023-04-15T03:47:11;23.75;;;19.55;;
51854;SDS011;37895;53.240;6.572;2023-04-15T03:49:37;22.67;;;20.27;;
51854;SDS011;37895;53.240;6.572;2023-04-15T03:52:03;23.10;;;20.60;;
51854;SDS011;37895;53.240;6.572;2023-04-15T03:54:28;23.13;;;19.00;;
51854;SDS011;37895;53.240;6.572;2023-04-15T03:56:54;23.95;;;20.33;;
51854;SDS011;37895;53.240;6.572;2023-04-15T03:59:20;24.20;;;19.67;;
51854;SDS011;37895;53.240;6.572;2023-04-15T04:01:46;23.70;;;20.02;;
51854;SDS011;37895;53.240;6.572;2023-04-15T04:04:12;22.30;;;19.13;;
51854;SDS011;37895;53.240;6.572;2023-04-15T04:06:37;22.33;;;19.70;;
51854;SDS011;37895;53.240;6.572;2023-04-15T04:09:03;25.02;;;21.90;;
51854;SDS011;37895;53.240;6.572;2023-04-15T04:11:29;23.75;;;21.15;;
51854;SDS011;37895;53.240;6.572;2023-04-15T04:13:54;27.05;;;22.83;;
51854;SDS011;37895;53.240;6.572;2023-04-15T04:16:20;26.70;;;22.35;;
51854;SDS011;37895;53.240;6.572;2023-04-15T04:18:46;26.35;;;21.73;;
51854;SDS011;37895;53.240;6.572;2023-04-15T04:21:11;24.23;;;21.63;;
51854;SDS011;37895;53.240;6.572;2023-04-15T04:23:37;23.98;;;20.15;;
51854;SDS011;37895;53.240;6.572;2023-04-15T04:26:03;23.08;;;20.63;;
51854;SDS011;37895;53.240;6.572;2023-04-15T04:28:28;25.05;;;19.77;;
51854;SDS011;37895;53.240;6.572;2023-04-15T04:30:54;20.50;;;18.48;;
51854;SDS011;37895;53.240;6.572;2023-04-15T04:35:46;23.13;;;18.50;;
51854;SDS011;37895;53.240;6.572;2023-04-15T04:38:11;22.33;;;19.50;;
51854;SDS011;37895;53.240;6.572;2023-04-15T04:40:37;22.60;;;18.67;;
51854;SDS011;37895;53.240;6.572;2023-04-15T04:43:03;22.65;;;18.40;;
51854;SDS011;37895;53.240;6.572;2023-04-15T04:45:29;19.80;;;17.60;;
51854;SDS011;37895;53.240;6.572;2023-04-15T04:47:55;20.45;;;18.27;;
51854;SDS011;37895;53.240;6.572;2023-04-15T04:50:20;22.63;;;19.88;;
51854;SDS011;37895;53.240;6.572;2023-04-15T04:52:46;21.70;;;19.40;;
51854;SDS011;37895;53.240;6.572;2023-04-15T04:55:12;20.52;;;18.38;;
51854;SDS011;37895;53.240;6.572;2023-04-15T04:57:37;23.35;;;18.95;;
51854;SDS011;37895;53.240;6.572;2023-04-15T05:00:06;21.15;;;18.48;;
51854;SDS011;37895;53.240;6.572;2023-04-15T05:02:33;21.08;;;18.58;;
51854;SDS011;37895;53.240;6.572;2023-04-15T05:04:58;27.55;;;23.08;;
51854;SDS011;37895;53.240;6.572;2023-04-15T05:07:25;23.83;;;21.35;;
51854;SDS011;37895;53.240;6.572;2023-04-15T05:09:50;23.30;;;20.52;;
51854;SDS011;37895;53.240;6.572;2023-04-15T05:12:16;21.98;;;19.67;;
51854;SDS011;37895;53.240;6.572;2023-04-15T05:14:42;25.05;;;21.55;;
51854;SDS011;37895;53.240;6.572;2023-04-15T05:17:08;22.13;;;19.30;;
51854;SDS011;37895;53.240;6.572;2023-04-15T05:19:35;24.50;;;20.73;;
51854;SDS011;37895;53.240;6.572;2023-04-15T05:22:00;27.70;;;23.88;;
51854;SDS011;37895;53.240;6.572;2023-04-15T05:24:26;25.52;;;22.42;;
51854;SDS011;37895;53.240;6.572;2023-04-15T05:26:52;35.67;;;27.60;;
51854;SDS011;37895;53.240;6.572;2023-04-15T05:29:17;26.87;;;22.93;;
51854;SDS011;37895;53.240;6.572;2023-04-15T05:31:43;32.17;;;25.35;;
51854;SDS011;37895;53.240;6.572;2023-04-15T05:34:08;24.85;;;22.13;;
51854;SDS011;37895;53.240;6.572;2023-04-15T05:36:35;27.08;;;21.83;;
51854;SDS011;37895;53.240;6.572;2023-04-15T05:39:01;25.90;;;21.67;;
51854;SDS011;37895;53.240;6.572;2023-04-15T05:41:28;21.52;;;19.13;;
51854;SDS011;37895;53.240;6.572;2023-04-15T05:43:54;21.42;;;19.23;;
51854;SDS011;37895;53.240;6.572;2023-04-15T05:46:20;21.83;;;19.33;;
51854;SDS011;37895;53.240;6.572;2023-04-15T05:48:46;23.13;;;18.92;;
51854;SDS011;37895;53.240;6.572;2023-04-15T05:51:12;23.25;;;19.50;;
51854;SDS011;37895;53.240;6.572;2023-04-15T05:53:38;21.75;;;19.42;;
51854;SDS011;37895;53.240;6.572;2023-04-15T05:56:05;23.95;;;21.17;;
51854;SDS011;37895;53.240;6.572;2023-04-15T05:58:31;22.55;;;19.95;;
51854;SDS011;37895;53.240;6.572;2023-04-15T06:00:57;21.90;;;19.58;;
51854;SDS011;37895;53.240;6.572;2023-04-15T06:03:22;23.15;;;20.23;;
51854;SDS011;37895;53.240;6.572;2023-04-15T06:05:48;22.03;;;19.70;;
51854;SDS011;37895;53.240;6.572;2023-04-15T06:08:14;23.47;;;20.23;;
51854;SDS011;37895;53.240;6.572;2023-04-15T06:10:39;27.70;;;21.23;;
51854;SDS011;37895;53.240;6.572;2023-04-15T06:13:05;23.75;;;21.25;;
51854;SDS011;37895;53.240;6.572;2023-04-15T06:15:32;25.98;;;21.02;;
51854;SDS011;37895;53.240;6.572;2023-04-15T06:17:57;28.10;;;22.50;;
51854;SDS011;37895;53.240;6.572;2023-04-15T06:20:23;27.98;;;22.33;;
51854;SDS011;37895;53.240;6.572;2023-04-15T06:22:49;27.88;;;22.52;;
51854;SDS011;37895;53.240;6.572;2023-04-15T06:28:42;29.55;;;22.08;;
51854;SDS011;37895;53.240;6.572;2023-04-15T06:31:08;28.45;;;22.15;;
51854;SDS011;37895;53.240;6.572;2023-04-15T06:33:34;27.57;;;21.27;;
51854;SDS011;37895;53.240;6.572;2023-04-15T06:35:59;25.35;;;21.13;;
51854;SDS011;37895;53.240;6.572;2023-04-15T06:38:25;26.60;;;21.00;;
51854;SDS011;37895;53.240;6.572;2023-04-15T06:40:51;26.30;;;20.50;;
51854;SDS011;37895;53.240;6.572;2023-04-15T06:43:16;27.50;;;21.15;;
51854;SDS011;37895;53.240;6.572;2023-04-15T06:45:42;22.38;;;19.02;;
51854;SDS011;37895;53.240;6.572;2023-04-15T06:48:08;23.23;;;18.48;;
51854;SDS011;37895;53.240;6.572;2023-04-15T06:50:34;26.20;;;19.88;;
51854;SDS011;37895;53.240;6.572;2023-04-15T06:52:59;26.88;;;19.05;;
51854;SDS011;37895;53.240;6.572;2023-04-15T06:55:25;24.90;;;19.42;;
51854;SDS011;37895;53.240;6.572;2023-04-15T06:57:51;24.85;;;19.58;;
51854;SDS011;37895;53.240;6.572;2023-04-15T07:00:17;23.17;;;18.80;;
51854;SDS011;37895;53.240;6.572;2023-04-15T07:02:43;23.17;;;17.63;;
51854;SDS011;37895;53.240;6.572;2023-04-15T07:05:09;24.52;;;17.40;;
51854;SDS011;37895;53.240;6.572;2023-04-15T07:07:35;23.33;;;17.08;;
51854;SDS011;37895;53.240;6.572;2023-04-15T07:10:01;20.95;;;16.27;;
51854;SDS011;37895;53.240;6.572;2023-04-15T07:12:27;18.15;;;14.38;;
51854;SDS011;37895;53.240;6.572;2023-04-15T07:14:52;20.27;;;14.00;;
51854;SDS011;37895;53.240;6.572;2023-04-15T07:17:18;15.85;;;13.45;;
51854;SDS011;37895;53.240;6.572;2023-04-15T07:19:43;17.10;;;13.77;;
51854;SDS011;37895;53.240;6.572;2023-04-15T07:22:09;16.27;;;12.33;;
51854;SDS011;37895;53.240;6.572;2023-04-15T07:24:35;17.20;;;12.95;;
51854;SDS011;37895;53.240;6.572;2023-04-15T07:27:00;15.30;;;11.73;;
51854;SDS011;37895;53.240;6.572;2023-04-15T07:29:26;15.27;;;11.52;;
51854;SDS011;37895;53.240;6.572;2023-04-15T07:31:52;15.57;;;11.70;;
51854;SDS011;37895;53.240;6.572;2023-04-15T07:34:18;14.35;;;11.00;;
51854;SDS011;37895;53.240;6.572;2023-04-15T07:36:44;14.15;;;10.80;;
51854;SDS011;37895;53.240;6.572;2023-04-15T07:39:14;18.50;;;10.90;;
51854;SDS011;37895;53.240;6.572;2023-04-15T07:41:40;15.27;;;11.30;;
51854;SDS011;37895;53.240;6.572;2023-04-15T07:44:06;12.32;;;11.02;;
51854;SDS011;37895;53.240;6.572;2023-04-15T07:46:31;12.95;;;10.73;;
51854;SDS011;37895;53.240;6.572;2023-04-15T07:48:57;13.52;;;10.38;;
51854;SDS011;37895;53.240;6.572;2023-04-15T07:51:23;13.35;;;10.75;;
51854;SDS011;37895;53.240;6.572;2023-04-15T07:53:49;16.98;;;11.57;;
51854;SDS011;37895;53.240;6.572;2023-04-15T07:56:14;14.73;;;10.50;;
51854;SDS011;37895;53.240;6.572;2023-04-15T07:58:40;12.38;;;9.85;;
51854;SDS011;37895;53.240;6.572;2023-04-15T08:03:32;11.55;;;9.32;;
51854;SDS011;37895;53.240;6.572;2023-04-15T08:05:58;12.45;;;9.68;;
51854;SDS011;37895;53.240;6.572;2023-04-15T08:08:23;14.35;;;10.02;;
51854;SDS011;37895;53.240;6.572;2023-04-15T08:10:50;12.05;;;9.40;;
51854;SDS011;37895;53.240;6.572;2023-04-15T08:13:16;12.05;;;8.27;;
51854;SDS011;37895;53.240;6.572;2023-04-15T08:15:42;12.55;;;9.00;;
51854;SDS011;37895;53.240;6.572;2023-04-15T08:18:07;11.75;;;7.80;;
51854;SDS011;37895;53.240;6.572;2023-04-15T08:20:33;11.38;;;9.05;;
51854;SDS011;37895;53.240;6.572;2023-04-15T08:22:59;10.82;;;8.02;;
51854;SDS011;37895;53.240;6.572;2023-04-15T08:25:24;9.77;;;7.07;;
51854;SDS011;37895;53.240;6.572;2023-04-15T08:30:19;9.25;;;7.00;;
51854;SDS011;37895;53.240;6.572;2023-04-15T08:32:45;7.82;;;6.82;;
51854;SDS011;37895;53.240;6.572;2023-04-15T08:35:11;13.45;;;7.32;;
51854;SDS011;37895;53.240;6.572;2023-04-15T08:37:37;9.73;;;6.93;;
51854;SDS011;37895;53.240;6.572;2023-04-15T08:40:03;10.45;;;6.15;;
51854;SDS011;37895;53.240;6.572;2023-04-15T08:42:30;8.48;;;6.07;;
51854;SDS011;37895;53.240;6.572;2023-04-15T08:45:00;8.32;;;5.63;;
51854;SDS011;37895;53.240;6.572;2023-04-15T08:47:29;5.95;;;4.53;;
51854;SDS011;37895;53.240;6.572;2023-04-15T08:49:58;7.53;;;4.70;;
51854;SDS011;37895;53.240;6.572;2023-04-15T08:52:29;6.35;;;4.82;;
51854;SDS011;37895;53.240;6.572;2023-04-15T08:54:55;6.72;;;4.20;;
51854;SDS011;37895;53.240;6.572;2023-04-15T08:57:25;6.35;;;4.60;;
51854;SDS011;37895;53.240;6.572;2023-04-15T08:59:53;8.45;;;4.50;;
51854;SDS011;37895;53.240;6.572;2023-04-15T09:02:21;6.35;;;3.90;;
51854;SDS011;37895;53.240;6.572;2023-04-15T09:04:48;7.22;;;4.03;;
51854;SDS011;37895;53.240;6.572;2023-04-15T09:07:14;8.73;;;4.35;;
51854;SDS011;37895;53.240;6.572;2023-04-15T09:09:40;7.22;;;4.20;;
51854;SDS011;37895;53.240;6.572;2023-04-15T09:12:06;8.13;;;4.20;;
51854;SDS011;37895;53.240;6.572;2023-04-15T09:14:33;7.50;;;4.38;;
51854;SDS011;37895;53.240;6.572;2023-04-15T09:16:59;6.68;;;3.95;;
51854;SDS011;37895;53.240;6.572;2023-04-15T09:19:27;4.07;;;3.50;;
51854;SDS011;37895;53.240;6.572;2023-04-15T09:21:54;4.03;;;3.20;;
51854;SDS011;37895;53.240;6.572;2023-04-15T09:24:23;5.60;;;3.10;;
51854;SDS011;37895;53.240;6.572;2023-04-15T09:26:51;4.70;;;3.25;;
51854;SDS011;37895;53.240;6.572;2023-04-15T09:29:21;10.63;;;4.07;;
51854;SDS011;37895;53.240;6.572;2023-04-15T09:31:49;4.07;;;3.40;;
51854;SDS011;37895;53.240;6.572;2023-04-15T09:34:15;3.97;;;3.08;;
51854;SDS011;37895;53.240;6.572;2023-04-15T09:39:10;4.30;;;3.42;;
51854;SDS011;37895;53.240;6.572;2023-04-15T09:41:35;4.15;;;3.00;;
51854;SDS011;37895;53.240;6.572;2023-04-15T09:44:01;5.82;;;3.40;;
51854;SDS011;37895;53.240;6.572;2023-04-15T09:46:44;4.40;;;2.88;;
51854;SDS011;37895;53.240;6.572;2023-04-15T09:49:10;4.63;;;3.22;;
51854;SDS011;37895;53.240;6.572;2023-04-15T09:51:36;3.53;;;2.80;;
51854;SDS011;37895;53.240;6.572;2023-04-15T09:54:02;6.55;;;3.10;;
51854;SDS011;37895;53.240;6.572;2023-04-15T09:56:35;5.00;;;2.78;;
51854;SDS011;37895;53.240;6.572;2023-04-15T09:59:05;3.25;;;2.75;;
51854;SDS011;37895;53.240;6.572;2023-04-15T10:01:31;3.72;;;2.67;;
51854;SDS011;37895;53.240;6.572;2023-04-15T10:03:57;5.47;;;2.95;;
51854;SDS011;37895;53.240;6.572;2023-04-15T10:06:26;6.00;;;2.83;;
51854;SDS011;37895;53.240;6.572;2023-04-15T10:08:53;5.80;;;2.60;;
51854;SDS011;37895;53.240;6.572;2023-04-15T10:11:20;4.28;;;2.78;;
51854;SDS011;37895;53.240;6.572;2023-04-15T10:13:48;5.70;;;3.25;;
51854;SDS011;37895;53.240;6.572;2023-04-15T10:16:15;4.75;;;3.22;;
51854;SDS011;37895;53.240;6.572;2023-04-15T10:18:50;7.53;;;3.55;;
51854;SDS011;37895;53.240;6.572;2023-04-15T10:21:21;7.00;;;3.70;;
51854;SDS011;37895;53.240;6.572;2023-04-15T10:23:47;6.30;;;3.50;;
51854;SDS011;37895;53.240;6.572;2023-04-15T10:26:14;5.32;;;3.15;;
51854;SDS011;37895;53.240;6.572;2023-04-15T10:28:41;7.45;;;3.60;;
51854;SDS011;37895;53.240;6.572;2023-04-15T10:31:08;6.65;;;3.60;;
51854;SDS011;37895;53.240;6.572;2023-04-15T10:33:37;7.40;;;3.70;;
51854;SDS011;37895;53.240;6.572;2023-04-15T10:36:03;8.02;;;4.00;;
51854;SDS011;37895;53.240;6.572;2023-04-15T10:38:36;9.38;;;4.20;;
51854;SDS011;37895;53.240;6.572;2023-04-15T10:41:19;11.02;;;4.13;;
51854;SDS011;37895;53.240;6.572;2023-04-15T10:43:51;8.15;;;3.78;;
51854;SDS011;37895;53.240;6.572;2023-04-15T10:46:20;7.07;;;3.42;;
51854;SDS011;37895;53.240;6.572;2023-04-15T10:48:48;5.57;;;3.25;;
51854;SDS011;37895;53.240;6.572;2023-04-15T10:51:27;7.47;;;4.65;;
51854;SDS011;37895;53.240;6.572;2023-04-15T10:53:58;7.35;;;3.80;;
51854;SDS011;37895;53.240;6.572;2023-04-15T10:56:24;9.13;;;3.97;;
51854;SDS011;37895;53.240;6.572;2023-04-15T10:58:50;8.07;;;4.18;;
51854;SDS011;37895;53.240;6.572;2023-04-15T11:01:16;12.55;;;3.83;;
51854;SDS011;37895;53.240;6.572;2023-04-15T11:03:44;6.15;;;3.60;;
51854;SDS011;37895;53.240;6.572;2023-04-15T11:06:10;10.50;;;3.90;;
51854;SDS011;37895;53.240;6.572;2023-04-15T11:08:52;11.20;;;3.92;;
51854;SDS011;37895;53.240;6.572;2023-04-15T11:11:23;10.77;;;3.55;;
51854;SDS011;37895;53.240;6.572;2023-04-15T11:14:07;8.05;;;3.45;;
51854;SDS011;37895;53.240;6.572;2023-04-15T11:16:43;12.05;;;4.03;;
51854;SDS011;37895;53.240;6.572;2023-04-15T11:19:09;7.97;;;4.20;;
51854;SDS011;37895;53.240;6.572;2023-04-15T11:21:35;8.25;;;3.25;;
51854;SDS011;37895;53.240;6.572;2023-04-15T11:24:00;8.67;;;3.43;;
51854;SDS011;37895;53.240;6.572;2023-04-15T11:26:26;9.00;;;3.23;;
51854;SDS011;37895;53.240;6.572;2023-04-15T11:28:51;9.73;;;4.20;;
51854;SDS011;37895;53.240;6.572;2023-04-15T11:31:18;10.57;;;3.70;;
51854;SDS011;37895;53.240;6.572;2023-04-15T11:33:52;7.35;;;3.33;;
51854;SDS011;37895;53.240;6.572;2023-04-15T11:36:23;8.65;;;3.40;;
51854;SDS011;37895;53.240;6.572;2023-04-15T11:38:51;8.43;;;3.40;;
51854;SDS011;37895;53.240;6.572;2023-04-15T11:41:20;7.13;;;3.40;;
51854;SDS011;37895;53.240;6.572;2023-04-15T11:43:46;9.85;;;4.03;;
51854;SDS011;37895;53.240;6.572;2023-04-15T11:46:13;10.73;;;3.45;;
51854;SDS011;37895;53.240;6.572;2023-04-15T11:48:41;10.30;;;3.45;;
51854;SDS011;37895;53.240;6.572;2023-04-15T11:51:09;8.52;;;3.60;;
51854;SDS011;37895;53.240;6.572;2023-04-15T11:53:36;8.82;;;3.50;;
51854;SDS011;37895;53.240;6.572;2023-04-15T11:56:09;11.90;;;3.70;;
51854;SDS011;37895;53.240;6.572;2023-04-15T11:58:40;8.00;;;3.20;;
51854;SDS011;37895;53.240;6.572;2023-04-15T12:01:07;10.35;;;3.92;;
51854;SDS011;37895;53.240;6.572;2023-04-15T12:06:16;10.77;;;3.47;;
51854;SDS011;37895;53.240;6.572;2023-04-15T12:14:26;9.60;;;3.58;;
51854;SDS011;37895;53.240;6.572;2023-04-15T12:16:54;10.18;;;3.60;;
51854;SDS011;37895;53.240;6.572;2023-04-15T12:19:23;13.60;;;3.75;;
51854;SDS011;37895;53.240;6.572;2023-04-15T12:21:51;8.38;;;3.67;;
51854;SDS011;37895;53.240;6.572;2023-04-15T12:24:21;10.10;;;3.00;;
51854;SDS011;37895;53.240;6.572;2023-04-15T12:26:48;11.32;;;3.90;;
51854;SDS011;37895;53.240;6.572;2023-04-15T12:29:16;7.22;;;3.00;;
51854;SDS011;37895;53.240;6.572;2023-04-15T12:31:52;9.00;;;3.38;;
51854;SDS011;37895;53.240;6.572;2023-04-15T12:34:26;11.55;;;3.20;;
51854;SDS011;37895;53.240;6.572;2023-04-15T12:37:02;11.52;;;3.53;;
51854;SDS011;37895;53.240;6.572;2023-04-15T12:39:30;9.43;;;3.50;;
51854;SDS011;37895;53.240;6.572;2023-04-15T12:41:58;9.95;;;3.80;;
51854;SDS011;37895;53.240;6.572;2023-04-15T12:44:25;11.45;;;2.78;;
51854;SDS011;37895;53.240;6.572;2023-04-15T12:49:17;12.07;;;3.33;;
51854;SDS011;37895;53.240;6.572;2023-04-15T12:51:46;11.38;;;3.40;;
51854;SDS011;37895;53.240;6.572;2023-04-15T12:54:17;9.82;;;3.55;;
51854;SDS011;37895;53.240;6.572;2023-04-15T12:56:43;10.35;;;3.35;;
51854;SDS011;37895;53.240;6.572;2023-04-15T12:59:10;10.02;;;2.90;;
51854;SDS011;37895;53.240;6.572;2023-04-15T13:01:37;8.77;;;2.85;;
51854;SDS011;37895;53.240;6.572;2023-04-15T13:04:03;7.68;;;3.08;;
51854;SDS011;37895;53.240;6.572;2023-04-15T13:06:29;13.90;;;3.60;;
51854;SDS011;37895;53.240;6.572;2023-04-15T13:08:58;10.85;;;4.18;;
51854;SDS011;37895;53.240;6.572;2023-04-15T13:11:25;11.93;;;3.35;;
51854;SDS011;37895;53.240;6.572;2023-04-15T13:13:53;8.05;;;3.25;;
51854;SDS011;37895;53.240;6.572;2023-04-15T13:16:19;11.25;;;3.60;;
51854;SDS011;37895;53.240;6.572;2023-04-15T13:18:45;11.75;;;3.90;;
51854;SDS011;37895;53.240;6.572;2023-04-15T13:21:12;9.57;;;3.75;;
51854;SDS011;37895;53.240;6.572;2023-04-15T13:23:39;10.73;;;3.20;;
51854;SDS011;37895;53.240;6.572;2023-04-15T13:26:06;14.18;;;3.75;;
51854;SDS011;37895;53.240;6.572;2023-04-15T13:28:32;18.27;;;4.85;;
51854;SDS011;37895;53.240;6.572;2023-04-15T13:30:58;18.90;;;4.13;;
51854;SDS011;37895;53.240;6.572;2023-04-15T13:35:50;12.10;;;3.92;;
51854;SDS011;37895;53.240;6.572;2023-04-15T13:38:16;10.30;;;3.70;;
51854;SDS011;37895;53.240;6.572;2023-04-15T13:40:41;14.52;;;3.72;;
51854;SDS011;37895;53.240;6.572;2023-04-15T13:43:07;13.45;;;3.72;;
51854;SDS011;37895;53.240;6.572;2023-04-15T13:45:33;9.32;;;3.38;;
51854;SDS011;37895;53.240;6.572;2023-04-15T13:47:58;11.27;;;4.05;;
51854;SDS011;37895;53.240;6.572;2023-04-15T13:50:26;13.18;;;3.60;;
51854;SDS011;37895;53.240;6.572;2023-04-15T13:59:13;10.88;;;4.03;;
51854;SDS011;37895;53.240;6.572;2023-04-15T14:01:38;13.23;;;3.95;;
51854;SDS011;37895;53.240;6.572;2023-04-15T14:04:05;12.98;;;4.07;;
51854;SDS011;37895;53.240;6.572;2023-04-15T14:06:31;12.85;;;3.72;;
51854;SDS011;37895;53.240;6.572;2023-04-15T14:08:56;9.43;;;3.67;;
51854;SDS011;37895;53.240;6.572;2023-04-15T14:11:22;14.50;;;4.25;;
51854;SDS011;37895;53.240;6.572;2023-04-15T14:13:48;13.18;;;4.00;;
51854;SDS011;37895;53.240;6.572;2023-04-15T14:16:13;14.93;;;4.90;;
51854;SDS011;37895;53.240;6.572;2023-04-15T14:18:39;15.65;;;4.30;;
51854;SDS011;37895;53.240;6.572;2023-04-15T14:21:05;14.63;;;4.00;;
51854;SDS011;37895;53.240;6.572;2023-04-15T14:23:31;15.43;;;3.70;;
51854;SDS011;37895;53.240;6.572;2023-04-15T14:25:56;13.07;;;4.22;;
51854;SDS011;37895;53.240;6.572;2023-04-15T14:28:23;13.90;;;3.85;;
51854;SDS011;37895;53.240;6.572;2023-04-15T14:33:14;16.13;;;4.75;;
51854;SDS011;37895;53.240;6.572;2023-04-15T14:35:40;14.40;;;4.88;;
51854;SDS011;37895;53.240;6.572;2023-04-15T14:38:05;17.90;;;5.07;;
51854;SDS011;37895;53.240;6.572;2023-04-15T14:40:34;15.43;;;4.57;;
51854;SDS011;37895;53.240;6.572;2023-04-15T14:43:00;20.75;;;5.35;;
51854;SDS011;37895;53.240;6.572;2023-04-15T14:45:26;13.55;;;4.70;;
51854;SDS011;37895;53.240;6.572;2023-04-15T14:47:52;17.65;;;5.00;;
51854;SDS011;37895;53.240;6.572;2023-04-15T14:50:17;12.27;;;4.40;;
51854;SDS011;37895;53.240;6.572;2023-04-15T14:52:43;19.25;;;5.97;;
51854;SDS011;37895;53.240;6.572;2023-04-15T14:55:09;15.02;;;5.55;;
51854;SDS011;37895;53.240;6.572;2023-04-15T14:57:40;19.17;;;6.00;;
51854;SDS011;37895;53.240;6.572;2023-04-15T15:00:06;15.20;;;5.70;;
51854;SDS011;37895;53.240;6.572;2023-04-15T15:02:34;18.48;;;6.40;;
51854;SDS011;37895;53.240;6.572;2023-04-15T15:05:00;18.33;;;6.40;;
51854;SDS011;37895;53.240;6.572;2023-04-15T15:07:26;22.27;;;6.20;;
51854;SDS011;37895;53.240;6.572;2023-04-15T15:09:52;17.20;;;6.75;;